createdAt,value
2023-03-17T00:00:03.165Z,53.79
2023-03-17T00:03:21.288Z,53.68
2023-03-17T00:09:30.321Z,53.69
2023-03-17T00:12:22.482Z,53.93
2023-03-17T00:15:15.991Z,53.86
2023-03-17T00:18:16.331Z,53.94
2023-03-17T00:21:12.038Z,53.97
2023-03-17T00:24:04.267Z,54.02
2023-03-17T00:26:56.198Z,53.94
2023-03-17T00:29:48.766Z,54.03
2023-03-17T00:32:42.134Z,54.05
2023-03-17T00:35:34.527Z,54.07
2023-03-17T00:38:26.726Z,54.05
2023-03-17T00:41:09.850Z,54.40
2023-03-17T00:44:01.890Z,54.63
2023-03-17T00:46:54.254Z,54.39
2023-03-17T00:49:46.826Z,54.34
2023-03-17T00:52:39.207Z,54.47
2023-03-17T00:55:31.680Z,54.52
2023-03-17T00:58:29.773Z,54.66
2023-03-17T01:01:21.897Z,54.73
2023-03-17T01:04:14.193Z,55.02
2023-03-17T01:07:06.259Z,54.81
2023-03-17T01:09:58.654Z,54.86
2023-03-17T01:12:51.085Z,54.90
2023-03-17T01:15:46.827Z,55.03
2023-03-17T01:18:39.676Z,55.17
2023-03-17T01:21:31.883Z,55.27
2023-03-17T01:24:23.846Z,55.19
2023-03-17T01:27:16.454Z,55.20
2023-03-17T01:30:19.374Z,55.23
2023-03-17T01:33:01.390Z,55.19
2023-03-17T01:35:53.782Z,55.25
2023-03-17T01:38:47.991Z,55.28
2023-03-17T01:41:40.468Z,55.41
2023-03-17T01:44:32.494Z,55.50
2023-03-17T01:47:26.796Z,55.53
2023-03-17T01:50:19.537Z,55.55
2023-03-17T01:53:12.257Z,55.72
2023-03-17T01:56:06.484Z,55.73
2023-03-17T01:59:01.169Z,55.83
2023-03-17T02:01:42.218Z,56.10
2023-03-17T02:04:35.007Z,56.11
2023-03-17T02:07:28.131Z,56.28
2023-03-17T02:10:12.724Z,56.28
2023-03-17T02:13:01.218Z,56.35
2023-03-17T02:15:54.444Z,56.58
2023-03-17T02:18:46.788Z,56.74
2023-03-17T02:21:45.178Z,56.73
2023-03-17T02:24:41.469Z,56.84
2023-03-17T02:27:37.164Z,57.03
2023-03-17T02:30:29.835Z,57.06
2023-03-17T02:33:22.044Z,57.05
2023-03-17T02:36:14.638Z,57.05
2023-03-17T02:39:07.156Z,57.23
2023-03-17T02:41:59.228Z,57.12
2023-03-17T02:44:51.342Z,57.24
2023-03-17T02:47:43.873Z,57.41
2023-03-17T02:50:36.390Z,57.31
2023-03-17T02:53:28.478Z,57.56
2023-03-17T02:56:20.480Z,57.66
2023-03-17T02:59:12.744Z,57.72
2023-03-17T03:02:04.722Z,57.55
2023-03-17T03:04:39.357Z,57.66
2023-03-17T03:07:32.546Z,57.64
2023-03-17T03:10:24.543Z,57.64
2023-03-17T03:13:16.581Z,57.81
2023-03-17T03:15:51.569Z,57.79
2023-03-17T03:18:43.622Z,57.92
2023-03-17T03:21:36.682Z,58.03
2023-03-17T03:24:28.799Z,58.06
2023-03-17T03:27:20.808Z,58.28
2023-03-17T03:30:14.938Z,58.38
2023-03-17T03:33:07.846Z,58.32
2023-03-17T03:35:59.915Z,58.36
2023-03-17T03:38:52.134Z,58.25
2023-03-17T03:41:44.383Z,58.43
2023-03-17T03:44:36.438Z,58.39
2023-03-17T03:47:28.641Z,58.23
2023-03-17T03:50:21.200Z,58.48
2023-03-17T03:53:13.516Z,58.54
2023-03-17T03:56:05.936Z,58.52
2023-03-17T03:58:58.006Z,58.69
2023-03-17T04:01:49.957Z,58.60
2023-03-17T04:04:42.908Z,58.77
2023-03-17T04:07:35.090Z,58.79
2023-03-17T04:10:27.197Z,58.79
2023-03-17T04:13:04.561Z,58.74
2023-03-17T04:15:56.797Z,58.93
2023-03-17T04:18:48.946Z,58.91
2023-03-17T04:21:41.154Z,59.12
2023-03-17T04:24:33.181Z,59.13
2023-03-17T04:27:25.201Z,59.07
2023-03-17T04:30:17.738Z,59.15
2023-03-17T04:33:01.032Z,59.13
2023-03-17T04:35:53.157Z,59.29
2023-03-17T04:38:45.337Z,59.36
2023-03-17T04:41:37.544Z,59.37
2023-03-17T04:44:29.564Z,59.40
2023-03-17T04:47:21.519Z,59.43
2023-03-17T04:50:15.072Z,59.45
2023-03-17T04:53:07.116Z,59.63
2023-03-17T04:55:59.159Z,59.58
2023-03-17T04:58:51.136Z,59.58
2023-03-17T05:01:43.544Z,59.72
2023-03-17T05:04:35.678Z,59.73
2023-03-17T05:07:27.844Z,59.73
2023-03-17T05:10:20.017Z,59.78
2023-03-17T05:13:12.005Z,59.81
2023-03-17T05:15:51.786Z,59.75
2023-03-17T05:18:44.780Z,59.79
2023-03-17T05:21:37.585Z,59.86
2023-03-17T05:24:29.569Z,60.12
2023-03-17T05:27:21.588Z,60.11
2023-03-17T05:30:15.635Z,60.30
2023-03-17T05:33:06.485Z,60.65
2023-03-17T05:35:58.664Z,61.28
2023-03-17T05:38:50.680Z,61.09
2023-03-17T05:41:42.767Z,60.83
2023-03-17T05:44:35.028Z,60.30
2023-03-17T05:47:27.090Z,59.85
2023-03-17T05:50:19.298Z,59.07
2023-03-17T05:53:11.665Z,58.46
2023-03-17T05:56:03.718Z,58.15
2023-03-17T05:58:55.763Z,57.97
2023-03-17T06:01:38.818Z,57.95
2023-03-17T06:04:30.848Z,57.79
2023-03-17T06:07:22.844Z,58.00
2023-03-17T06:10:15.582Z,57.72
2023-03-17T06:13:07.576Z,57.83
2023-03-17T06:15:59.576Z,57.84
2023-03-17T06:18:51.759Z,57.96
2023-03-17T06:21:43.762Z,57.97
2023-03-17T06:24:35.822Z,58.05
2023-03-17T06:27:27.937Z,58.17
2023-03-17T06:30:20.300Z,58.03
2023-03-17T06:33:12.158Z,58.16
2023-03-17T06:36:04.343Z,58.14
2023-03-17T06:38:56.468Z,58.06
2023-03-17T06:41:48.490Z,58.02
2023-03-17T06:44:40.832Z,58.10
2023-03-17T06:47:34.484Z,58.13
2023-03-17T06:50:27.402Z,57.89
2023-03-17T06:53:19.346Z,57.91
2023-03-17T06:56:23.637Z,58.01
2023-03-17T06:59:23.764Z,57.49
2023-03-17T07:02:15.317Z,57.00
2023-03-17T07:05:08.861Z,56.57
2023-03-17T07:07:46.213Z,56.14
2023-03-17T07:10:38.587Z,56.18
2023-03-17T07:13:32.079Z,56.10
2023-03-17T07:16:24.296Z,55.64
2023-03-17T07:19:16.718Z,55.36
2023-03-17T07:22:09.093Z,55.17
2023-03-17T07:25:01.283Z,54.63
2023-03-17T07:27:56.594Z,53.77
2023-03-17T07:30:48.679Z,53.49
2023-03-17T07:33:41.349Z,53.14
2023-03-17T07:36:33.669Z,53.32
2023-03-17T07:39:25.947Z,53.36
2023-03-17T07:42:18.563Z,52.46
2023-03-17T07:45:12.022Z,52.24
2023-03-17T07:48:05.047Z,51.76
2023-03-17T07:50:57.025Z,51.65
2023-03-17T07:53:50.069Z,51.30
2023-03-17T07:56:42.561Z,50.81
2023-03-17T07:59:34.744Z,50.40
2023-03-17T08:02:26.769Z,50.08
2023-03-17T08:05:19.537Z,51.37
2023-03-17T08:08:12.614Z,50.41
2023-03-17T08:11:06.069Z,48.10
2023-03-17T08:13:58.018Z,45.91
2023-03-17T08:16:50.108Z,43.34
2023-03-17T08:19:42.389Z,41.30
2023-03-17T08:22:34.385Z,39.95
2023-03-17T08:25:26.621Z,38.51
2023-03-17T08:28:18.550Z,37.42
2023-03-17T08:31:15.800Z,36.34
2023-03-17T08:34:08.572Z,34.83
2023-03-17T08:37:00.782Z,33.55
2023-03-17T08:39:52.790Z,32.70
2023-03-17T08:42:45.362Z,31.43
2023-03-17T08:45:37.530Z,30.26
2023-03-17T08:48:30.432Z,28.90
2023-03-17T08:51:24.714Z,28.70
2023-03-17T08:54:17.152Z,28.26
2023-03-17T08:57:09.247Z,27.26
2023-03-17T09:00:01.821Z,26.51
2023-03-17T09:02:53.882Z,26.13
2023-03-17T09:05:45.996Z,26.50
2023-03-17T09:08:39.984Z,25.81
2023-03-17T09:11:33.631Z,24.84
2023-03-17T09:14:25.910Z,24.33
2023-03-17T09:17:17.971Z,24.08
2023-03-17T09:20:13.822Z,23.95
2023-03-17T09:23:08.992Z,23.72
2023-03-17T09:26:01.930Z,23.64
2023-03-17T09:28:54.533Z,23.18
2023-03-17T09:31:47.061Z,22.43
2023-03-17T09:34:39.214Z,22.00
2023-03-17T09:37:31.322Z,21.08
2023-03-17T09:40:32.424Z,20.12
2023-03-17T09:43:33.383Z,19.32
2023-03-17T09:46:39.899Z,18.26
2023-03-17T09:49:44.753Z,18.40
2023-03-17T09:52:37.454Z,17.49
2023-03-17T09:55:33.735Z,16.92
2023-03-17T09:58:30.380Z,16.90
2023-03-17T10:01:23.232Z,16.20
2023-03-17T10:04:22.981Z,15.91
2023-03-17T10:07:20.681Z,16.52
2023-03-17T10:10:05.967Z,16.16
2023-03-17T10:13:05.976Z,15.99
2023-03-17T10:15:48.128Z,15.57
2023-03-17T10:18:46.422Z,15.48
2023-03-17T10:21:46.375Z,15.64
2023-03-17T10:24:44.736Z,15.75
2023-03-17T10:27:39.442Z,15.97
2023-03-17T10:30:34.485Z,15.90
2023-03-17T10:33:27.504Z,16.19
2023-03-17T10:36:37.692Z,16.32
2023-03-17T10:39:32.482Z,15.87
2023-03-17T10:42:27.775Z,15.77
2023-03-17T10:45:28.215Z,15.59
2023-03-17T10:48:20.979Z,16.03
2023-03-17T10:51:21.544Z,16.05
2023-03-17T10:54:19.969Z,16.44
2023-03-17T11:03:14.401Z,16.62
2023-03-17T11:06:10.087Z,16.13
2023-03-17T11:08:51.400Z,15.69
2023-03-17T11:11:47.992Z,15.84
2023-03-17T11:14:44.038Z,16.04
2023-03-17T11:17:55.716Z,15.90
2023-03-17T11:20:57.644Z,16.02
2023-03-17T11:23:53.976Z,16.37
2023-03-17T11:26:55.511Z,16.71
2023-03-17T11:30:15.186Z,16.51
2023-03-17T11:33:14.628Z,16.56
2023-03-17T11:36:17.260Z,16.59
2023-03-17T11:39:17.173Z,16.80
2023-03-17T11:42:17.262Z,17.57
2023-03-17T11:45:19.007Z,17.23
2023-03-17T11:48:22.458Z,17.31
2023-03-17T11:51:27.546Z,17.39
2023-03-17T11:54:25.141Z,17.55
2023-03-17T11:57:05.958Z,17.46
2023-03-17T12:00:03.768Z,16.99
2023-03-17T12:02:49.906Z,17.20
2023-03-17T12:05:42.662Z,17.45
2023-03-17T12:08:42.241Z,17.54
2023-03-17T12:11:40.092Z,17.61
2023-03-17T12:14:38.285Z,16.85
2023-03-17T12:17:37.649Z,16.79
2023-03-17T12:20:36.235Z,17.41
2023-03-17T12:23:35.913Z,17.52
2023-03-17T12:26:39.817Z,17.68
2023-03-17T12:29:43.666Z,17.65
2023-03-17T12:32:24.984Z,17.85
2023-03-17T12:35:29.326Z,17.76
2023-03-17T12:38:27.511Z,17.91
2023-03-17T12:41:36.458Z,17.56
2023-03-17T12:44:49.391Z,17.22
2023-03-17T12:47:56.062Z,17.04
2023-03-17T12:51:10.737Z,16.65
2023-03-17T12:54:01.526Z,16.63
2023-03-17T12:56:54.168Z,16.84
2023-03-17T12:59:48.772Z,16.52
2023-03-17T13:02:42.045Z,16.80
2023-03-17T13:05:37.325Z,17.16
2023-03-17T13:08:33.275Z,17.29
2023-03-17T13:11:47.599Z,17.60
2023-03-17T13:14:45.882Z,18.03
2023-03-17T13:17:38.153Z,18.88
2023-03-17T13:20:43.236Z,18.92
2023-03-17T13:23:41.154Z,19.00
2023-03-17T13:29:48.852Z,19.70
2023-03-17T13:32:42.792Z,19.98
2023-03-17T13:35:44.355Z,20.09
2023-03-17T13:38:48.566Z,20.13
2023-03-17T13:41:44.777Z,20.76
2023-03-17T13:44:48.587Z,20.93
2023-03-17T13:47:43.239Z,20.90
2023-03-17T13:50:36.975Z,21.06
2023-03-17T13:53:33.737Z,21.02
2023-03-17T13:56:27.962Z,21.20
2023-03-17T13:59:18.996Z,21.40
2023-03-17T14:02:18.580Z,21.53
2023-03-17T14:05:19.129Z,21.67
2023-03-17T14:08:20.277Z,21.92
2023-03-17T14:11:34.265Z,21.98
2023-03-17T14:14:36.651Z,22.04
2023-03-17T14:17:34.516Z,22.22
2023-03-17T14:20:28.587Z,22.48
2023-03-17T14:23:21.336Z,22.56
2023-03-17T14:26:13.959Z,22.70
2023-03-17T14:29:07.547Z,22.81
2023-03-17T14:32:06.059Z,22.79
2023-03-17T14:34:59.614Z,23.00
2023-03-17T14:37:51.998Z,23.24
2023-03-17T14:40:44.184Z,23.21
2023-03-17T14:43:37.326Z,23.32
2023-03-17T14:46:32.055Z,23.62
2023-03-17T14:49:27.023Z,23.67
2023-03-17T14:52:25.532Z,23.87
2023-03-17T14:55:19.722Z,23.65
2023-03-17T14:58:11.038Z,23.76
2023-03-17T15:01:08.438Z,23.98
2023-03-17T15:04:08.357Z,24.25
2023-03-17T15:07:02.640Z,23.93
2023-03-17T15:10:00.202Z,24.03
2023-03-17T15:13:03.786Z,24.29
2023-03-17T15:15:58.962Z,24.43
2023-03-17T15:18:57.168Z,24.41
2023-03-17T15:21:49.718Z,24.67
2023-03-17T15:24:44.344Z,24.61
2023-03-17T15:27:20.080Z,24.73
2023-03-17T15:30:13.414Z,24.73
2023-03-17T15:33:04.090Z,24.84
2023-03-17T15:35:56.517Z,24.98
2023-03-17T15:38:48.504Z,25.06
2023-03-17T15:41:40.564Z,25.03
2023-03-17T15:44:32.541Z,25.28
2023-03-17T15:47:28.281Z,25.35
2023-03-17T15:50:25.324Z,25.47
2023-03-17T15:53:17.940Z,25.45
2023-03-17T15:56:18.961Z,25.44
2023-03-17T15:59:11.937Z,25.52
2023-03-17T16:02:04.388Z,25.69
2023-03-17T16:04:57.731Z,25.62
2023-03-17T16:07:50.169Z,25.55
2023-03-17T16:10:42.376Z,25.61
2023-03-17T16:13:34.390Z,25.83
2023-03-17T16:16:32.991Z,25.98
2023-03-17T16:19:25.394Z,26.06
2023-03-17T16:22:38.423Z,26.02
2023-03-17T16:25:22.298Z,25.97
2023-03-17T16:28:18.410Z,25.77
2023-03-17T16:31:23.776Z,25.82
2023-03-17T16:34:20.192Z,26.29
2023-03-17T16:37:15.772Z,26.08
2023-03-17T16:40:19.229Z,26.17
2023-03-17T16:43:25.359Z,26.43
2023-03-17T16:46:08.690Z,26.77
2023-03-17T16:48:49.973Z,27.00
2023-03-17T16:51:24.885Z,27.31
2023-03-17T16:54:16.974Z,27.64
2023-03-17T16:57:10.652Z,27.88
2023-03-17T17:00:02.700Z,28.16
2023-03-17T17:02:55.096Z,28.43
2023-03-17T17:05:47.319Z,28.69
2023-03-17T17:08:39.358Z,28.75
2023-03-17T17:11:31.512Z,29.01
2023-03-17T17:14:23.456Z,29.23
2023-03-17T17:17:15.672Z,29.38
2023-03-17T17:20:14.945Z,29.58
2023-03-17T17:23:07.941Z,30.14
2023-03-17T17:26:00.004Z,30.42
2023-03-17T17:28:52.126Z,31.01
2023-03-17T17:31:44.756Z,30.75
2023-03-17T17:34:36.858Z,31.02
2023-03-17T17:37:28.882Z,31.74
2023-03-17T17:40:24.379Z,32.22
2023-03-17T17:43:18.189Z,32.68
2023-03-17T17:46:20.679Z,32.82
2023-03-17T17:49:14.669Z,33.18
2023-03-17T17:52:06.953Z,33.01
2023-03-17T17:54:59.813Z,33.14
2023-03-17T17:57:52.666Z,33.54
2023-03-17T18:00:45.153Z,33.68
2023-03-17T18:03:37.164Z,33.64
2023-03-17T18:06:29.326Z,33.87
2023-03-17T18:09:21.605Z,34.08
2023-03-17T18:12:14.031Z,34.17
2023-03-17T18:15:07.153Z,34.17
2023-03-17T18:17:59.170Z,34.40
2023-03-17T18:20:53.069Z,34.47
2023-03-17T18:23:30.471Z,34.34
2023-03-17T18:26:23.106Z,34.84
2023-03-17T18:29:15.125Z,34.91
2023-03-17T18:32:07.953Z,35.17
2023-03-17T18:35:04.099Z,35.59
2023-03-17T18:37:57.567Z,36.00
2023-03-17T18:40:49.703Z,36.20
2023-03-17T18:43:44.692Z,36.23
2023-03-17T18:46:36.912Z,36.46
2023-03-17T18:49:29.035Z,36.61
2023-03-17T18:52:21.099Z,36.41
2023-03-17T18:55:15.091Z,36.71
2023-03-17T18:58:01.631Z,36.93
2023-03-17T19:00:54.631Z,36.69
2023-03-17T19:03:46.984Z,36.10
2023-03-17T19:06:39.616Z,35.89
2023-03-17T19:09:31.711Z,36.10
2023-03-17T19:12:23.872Z,36.24
2023-03-17T19:14:59.166Z,36.67
2023-03-17T19:17:51.323Z,36.34
2023-03-17T19:20:45.104Z,35.81
2023-03-17T19:23:38.305Z,35.70
2023-03-17T19:26:32.305Z,35.59
2023-03-17T19:29:24.350Z,35.70
2023-03-17T19:32:17.098Z,35.78
2023-03-17T19:35:10.718Z,36.01
2023-03-17T19:38:04.417Z,36.30
2023-03-17T19:40:56.448Z,36.27
2023-03-17T19:43:48.474Z,36.18
2023-03-17T19:46:40.685Z,36.23
2023-03-17T19:49:21.099Z,36.36
2023-03-17T19:52:13.210Z,36.66
2023-03-17T19:55:08.151Z,36.53
2023-03-17T19:58:00.402Z,36.78
2023-03-17T20:00:52.894Z,37.00
2023-03-17T20:03:44.880Z,37.20
2023-03-17T20:06:37.084Z,37.49
2023-03-17T20:09:30.904Z,37.34
2023-03-17T20:12:23.080Z,37.46
2023-03-17T20:15:16.399Z,37.65
2023-03-17T20:18:08.439Z,38.34
2023-03-17T20:21:01.604Z,38.53
2023-03-17T20:23:53.800Z,39.03
2023-03-17T20:26:46.110Z,39.12
2023-03-17T20:29:28.576Z,39.16
2023-03-17T20:32:21.046Z,39.12
2023-03-17T20:35:13.669Z,39.60
2023-03-17T20:38:07.419Z,39.78
2023-03-17T20:41:09.292Z,39.95
2023-03-17T20:44:02.028Z,40.12
2023-03-17T20:46:54.859Z,40.20
2023-03-17T20:49:47.902Z,40.30
2023-03-17T20:52:41.892Z,40.40
2023-03-17T20:55:33.989Z,40.99
2023-03-17T20:58:26.755Z,41.22
2023-03-17T21:01:21.226Z,41.21
2023-03-17T21:04:15.990Z,41.43
2023-03-17T21:07:08.225Z,41.57
2023-03-17T21:10:02.051Z,41.86
2023-03-17T21:12:54.047Z,42.06
2023-03-17T21:15:45.995Z,42.15
2023-03-17T21:18:38.018Z,42.40
2023-03-17T21:21:15.670Z,42.39
2023-03-17T21:24:09.602Z,42.52
2023-03-17T21:27:02.396Z,42.54
2023-03-17T21:29:54.618Z,42.78
2023-03-17T21:32:46.696Z,43.02
2023-03-17T21:35:38.710Z,43.07
2023-03-17T21:38:32.012Z,43.37
2023-03-17T21:41:33.183Z,43.53
2023-03-17T21:44:25.626Z,43.61
2023-03-17T21:47:17.972Z,43.65
2023-03-17T21:50:11.410Z,43.89
2023-03-17T21:53:03.581Z,43.95
2023-03-17T21:55:55.533Z,44.02
2023-03-17T21:58:49.040Z,44.17
2023-03-17T22:01:41.755Z,44.31
2023-03-17T22:04:33.890Z,44.43
2023-03-17T22:07:26.020Z,44.71
2023-03-17T22:10:18.211Z,45.06
2023-03-17T22:13:10.205Z,45.29
2023-03-17T22:16:02.613Z,45.49
2023-03-17T22:18:54.947Z,45.60
2023-03-17T22:21:47.047Z,45.79
2023-03-17T22:24:39.045Z,45.89
2023-03-17T22:27:31.692Z,46.05
2023-03-17T22:30:25.042Z,46.10
2023-03-17T22:33:17.436Z,46.27
2023-03-17T22:36:10.003Z,46.31
2023-03-17T22:39:02.326Z,46.46
2023-03-17T22:41:54.384Z,46.74
2023-03-17T22:44:46.492Z,46.83
2023-03-17T22:47:38.582Z,46.99
2023-03-17T22:50:31.056Z,47.24
2023-03-17T22:53:23.256Z,47.41
2023-03-17T22:56:16.744Z,47.49
2023-03-17T22:59:08.769Z,47.65
2023-03-17T23:02:01.024Z,47.78
2023-03-17T23:04:53.405Z,47.86
2023-03-17T23:07:50.733Z,47.80
2023-03-17T23:10:43.764Z,47.92
2023-03-17T23:13:36.525Z,47.90
2023-03-17T23:16:28.769Z,48.09
2023-03-17T23:19:21.407Z,48.10
2023-03-17T23:22:13.701Z,48.20
2023-03-17T23:25:06.206Z,48.39
2023-03-17T23:27:58.190Z,48.31
2023-03-17T23:30:50.301Z,48.57
2023-03-17T23:33:42.577Z,48.67
2023-03-17T23:36:24.642Z,48.79
2023-03-17T23:39:16.920Z,48.82
2023-03-17T23:42:09.880Z,49.09
2023-03-17T23:45:02.084Z,49.08
2023-03-17T23:47:55.611Z,49.32
2023-03-17T23:50:48.769Z,49.31
2023-03-17T23:53:41.661Z,49.34
2023-03-17T23:56:33.665Z,49.41
2023-03-17T23:59:25.893Z,49.63
